Aeroporto :
LOGIN :

Iscrizione | Disclaimer

   EN    FR    IT 

 










Sommario :    VFR   VFR Marginale   IFR   IFR Intensivo   IFR Molto Intensivo
Visibilità : 
Base nubi : 
>= 8 km
>= 3000ft
5 / 8 km
1000 / 3000 ft
1500m / 5 km
500 / 1000 ft
800 / 1500m
200 / 500 ft
< 800m
< 200 ft
Simboli :   Temporali  Nebbia  Neve Forte  Precipitazioni Forti  Vento > 20 kt
SIGMETs :   Varie  Temporali  Ghiacco  Turbolenza  Onda orograficha  Ceneri Vulcaniche







- Altitudine del aeroporto : 82 ft
- Codice IATA : QIE
- Carte del aeroporto


LFMI - Istres

ULTIMO METAR :
  • 191430Z AUTO 17013KT CAVOK 23/08 Q1024 NOSIG

METARs OBSOLETI :
  • 191400Z AUTO 18010KT 140V210 CAVOK 24/07 Q1024 NOSIG
  • 191330Z AUTO 19009KT 170V230 CAVOK 23/07 Q1025 NOSIG
  • 191300Z AUTO 19008KT 160V250 CAVOK 23/06 Q1025 NOSIG
  • 191230Z AUTO 14007KT 080V200 9999 FEW010 24/03 Q1025 NOSIG
  • 191200Z AUTO 11009KT 060V150 CAVOK 24/04 Q1025 NOSIG

TAF TAF LFMI
Valido dal 19 a 15 ore il 20 a 15 ore UTC


191400Z 1915/2015 16010KT CAVOK
BECMG 1917/1918 05006KT
BECMG 2008/2009 10010KT
BECMG 2012/2014 15010G20KT
Nessun NOTAM noto per questo aeroporto.
2 SIGMETs conosciuti per la FIR Marseille (LFMM) :
 
Turbolenza severa
LFMM SIGMET 5 VALID 191300/191700 LFPW
LFMM MARSEILLE FIR/UIR SEV TURB FCST WI N4230 E00230 - N4415 E00245 - N4430 E00315 - N4415 E00345 - N4230 E00230 SFC/FL060 STNR NC=
Turbolenza severa
LFMM SIGMET 4 VALID 191100/191500 LFPW
LFMM MARSEILLE FIR/UIR SEV TURB FCST WI N4345 E00730 - N4345 E00745 - N4245 E00645 - N4245 E00515 - N4330 E00530 - N4345 E00730 SFC/FL060 STNR WKN=



MetMap, La meteo Aeronautica in un colpo d'occhio ! - Copyright ORBIFLY Dicembre 2007 - Disclaimer

ORBIFLY MET'MAP TEAM :

Programmazione e sviluppo : Alexandra Zaïnal
Concezione e sviluppo : Baudouin d'Aumeries
Co-Programmazione e sviluppo : Marc-Olivier Méhu
Supporto tecnico e logistico : Manuel Goepfert
Aiuto per la traduzione : Arnaldo La Scala

Contatto : metmap@orbifly.com




FONTI E CREDITI :

   NOAA